Time;durP1;ratioP1;P1;durP2;ratioP2;P2;SDS_P1;SDS_P2;PMS_P1;PMS_P2;Temp;Humidity;BMP_temperature;BMP_pressure;BME280_temperature;BME280_humidity;BME280_pressure;Samples;Min_cycle;Max_cycle;Signal;HPM_P1;HPM_P2
2022/04/08 00:01:51;;;;;;;6.20;1.27;;;5.60;99.90;;;;;;4974710;28;20556;-74
2022/04/08 00:04:16;;;;;;;4.43;0.90;;;5.60;99.90;;;;;;4974363;28;20042;-74
2022/04/08 00:06:42;;;;;;;2.08;0.80;;;5.50;99.90;;;;;;4958639;28;20489;-74
2022/04/08 00:09:07;;;;;;;5.38;0.90;;;5.50;99.90;;;;;;4975843;28;20042;-74
2022/04/08 00:11:33;;;;;;;5.30;0.90;;;5.40;99.90;;;;;;4964835;28;20038;-74
2022/04/08 00:14:00;;;;;;;3.20;0.80;;;5.40;99.90;;;;;;4993527;28;20041;-74
2022/04/08 00:16:26;;;;;;;2.78;0.52;;;5.30;99.90;;;;;;4993975;28;20550;-74
2022/04/08 00:18:51;;;;;;;5.05;1.10;;;5.30;99.90;;;;;;4994097;28;20034;-74
2022/04/08 00:21:17;;;;;;;5.72;0.98;;;5.30;99.90;;;;;;4978112;28;20044;-74
2022/04/08 00:23:43;;;;;;;6.75;1.13;;;5.20;99.90;;;;;;4992729;28;20075;-74
2022/04/08 00:26:09;;;;;;;2.20;0.82;;;5.30;99.90;;;;;;4992834;28;20030;-74
2022/04/08 00:28:35;;;;;;;6.25;1.10;;;5.30;99.90;;;;;;4993996;28;20558;-74
2022/04/08 00:31:02;;;;;;;2.80;0.68;;;5.30;99.90;;;;;;4994402;28;20085;-74
2022/04/08 00:33:32;;;;;;;4.03;0.90;;;5.20;99.90;;;;;;4993156;28;20514;-74
2022/04/08 00:35:57;;;;;;;3.00;0.82;;;5.10;99.90;;;;;;4993783;28;20049;-75
2022/04/08 00:38:23;;;;;;;3.83;0.50;;;4.90;99.90;;;;;;4992979;28;20042;-74
2022/04/08 00:40:48;;;;;;;2.88;0.68;;;4.80;99.90;;;;;;4993682;28;20412;-75
2022/04/08 00:43:16;;;;;;;3.03;0.70;;;4.70;99.90;;;;;;4996760;28;20045;-75
2022/04/08 00:45:42;;;;;;;4.38;0.98;;;4.70;99.90;;;;;;4980967;28;20034;-75
2022/04/08 00:48:08;;;;;;;4.80;0.70;;;4.60;99.90;;;;;;4980810;28;20488;-75
2022/04/08 00:50:38;;;;;;;3.88;0.80;;;4.60;99.90;;;;;;4996533;28;20029;-75
2022/04/08 00:53:05;;;;;;;5.40;0.77;;;4.60;99.90;;;;;;4996852;28;20404;-75
2022/04/08 00:55:31;;;;;;;3.70;0.80;;;4.60;99.90;;;;;;4997096;28;20125;-75
2022/04/08 00:58:01;;;;;;;5.05;0.85;;;4.50;99.90;;;;;;4996668;28;20221;-74
2022/04/08 01:00:31;;;;;;;4.22;0.80;;;4.60;99.90;;;;;;4997036;28;20053;-75
2022/04/08 01:02:56;;;;;;;2.08;0.63;;;4.50;99.90;;;;;;4996223;28;20053;-75
2022/04/08 01:05:22;;;;;;;4.88;0.90;;;4.40;99.90;;;;;;4996740;28;20397;-75
2022/04/08 01:07:47;;;;;;;4.82;0.80;;;4.40;99.90;;;;;;4996584;28;20053;-75
2022/04/08 01:10:13;;;;;;;5.38;0.88;;;4.30;99.90;;;;;;4996705;28;20038;-75
2022/04/08 01:12:39;;;;;;;2.58;1.10;;;4.30;99.90;;;;;;4996448;28;20038;-75
2022/04/08 01:15:05;;;;;;;6.13;1.10;;;4.20;99.90;;;;;;4983459;28;20065;-75
2022/04/08 01:17:31;;;;;;;5.75;0.80;;;4.20;99.90;;;;;;4993522;28;20096;-75
2022/04/08 01:19:56;;;;;;;2.80;1.00;;;4.20;99.90;;;;;;4996550;28;20081;-75
2022/04/08 01:22:23;;;;;;;10.57;1.60;;;4.20;99.90;;;;;;4980234;28;20038;-75
2022/04/08 01:24:56;;;;;;;4.38;1.10;;;4.10;99.90;;;;;;4996102;28;20038;-75
2022/04/08 01:27:22;;;;;;;8.35;1.30;;;4.10;99.90;;;;;;4996577;28;20054;-75
2022/04/08 01:29:47;;;;;;;5.90;1.33;;;4.10;99.90;;;;;;4980211;28;20104;-75
2022/04/08 01:32:14;;;;;;;5.43;1.05;;;4.10;99.90;;;;;;4996085;28;20045;-75
2022/04/08 01:34:40;;;;;;;13.63;1.67;;;4.10;99.90;;;;;;4996263;28;20042;-75
2022/04/08 01:37:05;;;;;;;8.07;1.48;;;4.10;99.90;;;;;;4996155;28;20531;-75
2022/04/08 01:39:31;;;;;;;11.45;1.92;;;4.10;99.90;;;;;;4980215;28;20401;-75
2022/04/08 01:41:56;;;;;;;11.50;1.50;;;4.10;99.90;;;;;;4976782;28;20447;-74
2022/04/08 01:44:22;;;;;;;7.88;1.48;;;4.10;99.90;;;;;;4960481;28;20038;-75
2022/04/08 01:46:48;;;;;;;10.82;1.42;;;4.10;99.90;;;;;;4985507;28;20049;-75
2022/04/08 01:49:13;;;;;;;5.88;1.30;;;4.10;99.90;;;;;;4996435;28;20061;-75
2022/04/08 01:51:39;;;;;;;7.50;1.30;;;4.10;99.90;;;;;;4987460;28;20124;-75
2022/04/08 01:54:04;;;;;;;8.43;1.40;;;4.00;99.90;;;;;;4979288;28;20133;-74
2022/04/08 01:56:30;;;;;;;8.65;1.80;;;4.00;99.90;;;;;;4995820;28;20575;-75
2022/04/08 01:58:55;;;;;;;10.23;1.55;;;4.00;99.90;;;;;;4996284;28;20038;-74
2022/04/08 02:01:21;;;;;;;9.73;1.08;;;4.00;99.90;;;;;;4995655;28;20048;-75
2022/04/08 02:03:46;;;;;;;7.57;1.52;;;4.00;99.90;;;;;;4995352;28;20037;-75
2022/04/08 02:06:12;;;;;;;9.90;1.33;;;4.00;99.90;;;;;;4979447;28;20007;-75
2022/04/08 02:08:39;;;;;;;7.57;1.20;;;4.10;99.90;;;;;;4979655;28;20037;-75
2022/04/08 02:11:04;;;;;;;6.05;1.42;;;4.00;99.90;;;;;;4995870;28;20046;-74
2022/04/08 02:13:30;;;;;;;13.48;2.15;;;4.00;99.90;;;;;;4995229;28;20095;-75
2022/04/08 02:15:55;;;;;;;12.02;1.83;;;3.90;99.90;;;;;;4995642;28;20042;-74
2022/04/08 02:18:21;;;;;;;6.63;1.20;;;3.80;99.90;;;;;;4960535;28;20073;-74
2022/04/08 02:20:46;;;;;;;10.38;1.23;;;3.80;99.90;;;;;;4976385;28;20499;-74
2022/04/08 02:23:12;;;;;;;8.55;1.67;;;3.70;99.90;;;;;;4975711;28;20103;-75
2022/04/08 02:25:37;;;;;;;10.65;1.50;;;3.60;99.90;;;;;;4975990;28;20031;-75
2022/04/08 02:28:03;;;;;;;10.02;1.70;;;3.60;99.90;;;;;;4992875;28;20037;-74
2022/04/08 02:30:29;;;;;;;10.50;1.73;;;3.60;99.90;;;;;;4995049;28;20034;-75
2022/04/08 02:32:56;;;;;;;7.88;1.42;;;3.70;99.90;;;;;;4994914;28;20295;-75
2022/04/08 02:35:21;;;;;;;7.57;1.35;;;3.80;99.90;;;;;;4995693;28;20488;-75
2022/04/08 02:37:49;;;;;;;8.98;2.88;;;3.90;99.90;;;;;;4991803;28;20053;-75
2022/04/08 02:40:15;;;;;;;10.50;1.80;;;3.90;99.90;;;;;;4976010;28;20050;-75
2022/04/08 02:42:40;;;;;;;9.50;1.30;;;3.90;99.90;;;;;;4969147;28;20368;-76
2022/04/08 02:45:06;;;;;;;6.45;1.10;;;3.80;99.90;;;;;;4995193;28;20132;-75
2022/04/08 02:47:32;;;;;;;4.05;0.85;;;3.70;99.90;;;;;;4994451;28;20050;-75
2022/04/08 02:49:57;;;;;;;4.05;1.05;;;3.60;99.90;;;;;;4975499;28;20044;-75
2022/04/08 02:52:23;;;;;;;10.82;3.60;;;3.40;99.90;;;;;;4969210;28;20041;-75
2022/04/08 02:54:48;;;;;;;4.40;1.00;;;3.30;99.90;;;;;;4994909;28;20042;-75
2022/04/08 02:57:14;;;;;;;7.82;1.38;;;3.20;99.90;;;;;;4994733;28;20041;-75
2022/04/08 02:59:39;;;;;;;7.68;1.35;;;3.00;99.90;;;;;;4978732;28;20046;-75
2022/04/08 03:02:05;;;;;;;5.35;1.20;;;2.90;99.90;;;;;;4978653;28;20408;-75
2022/04/08 03:04:30;;;;;;;3.95;1.00;;;2.80;99.90;;;;;;4977539;28;20133;-75
2022/04/08 03:06:58;;;;;;;8.57;1.23;;;2.80;99.90;;;;;;4977940;28;20038;-75
2022/04/08 03:09:23;;;;;;;4.75;1.33;;;2.80;99.90;;;;;;4994896;28;20046;-75
2022/04/08 03:11:49;;;;;;;4.47;1.50;;;2.70;99.90;;;;;;4965517;28;20116;-75
2022/04/08 03:14:14;;;;;;;4.28;1.40;;;2.80;99.90;;;;;;4985486;28;20038;-75
2022/04/08 03:16:40;;;;;;;8.68;1.65;;;2.80;99.90;;;;;;4994413;28;20034;-75
2022/04/08 03:19:05;;;;;;;13.40;1.85;;;2.80;99.90;;;;;;4978611;28;20069;-75
2022/04/08 03:21:31;;;;;;;10.52;1.90;;;2.80;99.90;;;;;;4994705;28;20033;-75
2022/04/08 03:24:04;;;;;;;10.15;2.15;;;2.90;99.90;;;;;;5018352;23;20071;-78
2022/04/08 03:26:38;;;;;;;20.42;2.35;;;3.00;99.90;;;;;;4981339;28;20037;-78
2022/04/08 03:29:05;;;;;;;15.25;2.35;;;3.20;99.90;;;;;;4976748;28;20041;-77
2022/04/08 03:31:34;;;;;;;16.00;2.38;;;3.40;99.90;;;;;;4977996;28;20577;-77
2022/04/08 03:34:07;;;;;;;15.70;2.00;;;3.60;99.90;;;;;;4978173;28;20387;-77
2022/04/08 03:36:33;;;;;;;10.85;1.75;;;3.70;99.90;;;;;;4978538;28;20049;-78
2022/04/08 03:39:02;;;;;;;12.63;2.13;;;3.80;99.90;;;;;;4977568;28;20034;-77
2022/04/08 03:41:32;;;;;;;12.32;2.03;;;3.90;99.90;;;;;;4974036;28;20058;-78
2022/04/08 03:44:01;;;;;;;13.38;2.00;;;4.00;99.90;;;;;;4958627;28;20078;-77
2022/04/08 03:46:27;;;;;;;12.10;2.20;;;4.10;99.90;;;;;;4958914;28;20045;-78
2022/04/08 03:48:55;;;;;;;8.57;1.77;;;4.20;99.90;;;;;;4958983;28;20412;-78
2022/04/08 03:51:21;;;;;;;11.05;1.95;;;4.10;99.90;;;;;;4991874;28;20050;-78
2022/04/08 03:53:50;;;;;;;11.82;2.28;;;4.10;99.90;;;;;;4977945;28;20122;-77
2022/04/08 03:56:16;;;;;;;8.40;1.83;;;4.00;99.90;;;;;;4979193;28;20038;-77
2022/04/08 03:58:49;;;;;;;8.80;1.85;;;4.00;99.90;;;;;;4980238;28;20038;-77
2022/04/08 04:01:18;;;;;;;6.47;1.60;;;3.90;99.90;;;;;;4978049;28;20049;-77
2022/04/08 04:03:44;;;;;;;8.43;1.63;;;3.70;99.90;;;;;;4978169;28;20441;-77
2022/04/08 04:06:10;;;;;;;9.57;1.90;;;3.70;99.90;;;;;;4993091;28;20081;-77
2022/04/08 04:08:38;;;;;;;6.30;1.67;;;3.60;99.90;;;;;;4977282;28;20053;-77
2022/04/08 04:11:06;;;;;;;7.85;1.80;;;3.60;99.90;;;;;;4994221;28;20435;-77
2022/04/08 04:13:35;;;;;;;7.43;1.42;;;3.50;99.90;;;;;;4977904;28;20049;-77
2022/04/08 04:16:04;;;;;;;5.85;1.90;;;3.40;99.90;;;;;;4979509;28;20042;-77
2022/04/08 04:18:35;;;;;;;5.88;1.45;;;3.40;99.90;;;;;;4981302;28;20044;-77
2022/04/08 04:21:05;;;;;;;4.90;1.83;;;3.40;99.90;;;;;;4978092;28;20057;-77
2022/04/08 04:23:34;;;;;;;7.15;1.55;;;3.40;99.90;;;;;;4962006;28;20047;-77
2022/04/08 04:26:08;;;;;;;8.77;1.57;;;3.30;99.90;;;;;;4962574;28;20038;-77
2022/04/08 04:28:39;;;;;;;5.72;1.58;;;3.20;99.90;;;;;;4965846;28;20549;-77
2022/04/08 04:31:10;;;;;;;6.63;1.83;;;3.30;99.90;;;;;;4962440;28;20041;-76
2022/04/08 04:33:37;;;;;;;4.85;1.88;;;3.30;99.90;;;;;;4961338;28;20479;-77
2022/04/08 04:36:05;;;;;;;10.73;2.00;;;3.30;99.90;;;;;;4960696;28;20050;-77
2022/04/08 04:38:33;;;;;;;4.60;1.90;;;3.30;99.90;;;;;;4964681;28;20170;-77
2022/04/08 04:41:00;;;;;;;7.10;2.35;;;3.30;99.90;;;;;;4980765;28;20575;-77
2022/04/08 04:43:26;;;;;;;6.63;1.60;;;3.40;99.90;;;;;;4980249;28;20041;-77
2022/04/08 04:45:58;;;;;;;6.40;2.10;;;3.40;99.90;;;;;;4981125;28;20088;-77
2022/04/08 04:48:26;;;;;;;6.95;1.77;;;3.40;99.90;;;;;;4970278;28;20042;-77
2022/04/08 04:50:54;;;;;;;5.07;1.60;;;3.40;99.90;;;;;;4949142;28;20097;-78
2022/04/08 04:53:20;;;;;;;3.72;1.50;;;3.40;99.90;;;;;;4971673;28;20435;-78
2022/04/08 04:55:48;;;;;;;6.78;1.63;;;3.40;99.90;;;;;;4981016;28;20504;-78
2022/04/08 04:58:15;;;;;;;6.85;1.85;;;3.40;99.90;;;;;;4980873;28;20041;-78
2022/04/08 05:00:46;;;;;;;5.45;2.10;;;3.40;99.90;;;;;;4981157;28;20049;-78
2022/04/08 05:03:18;;;;;;;11.18;2.72;;;3.50;99.90;;;;;;4995788;28;20042;-78
2022/04/08 05:05:53;;;;;;;8.40;2.70;;;3.50;99.90;;;;;;4996673;28;20038;-78
2022/04/08 05:08:29;;;;;;;6.72;2.47;;;3.60;99.90;;;;;;4997026;28;20042;-78
2022/04/08 05:11:04;;;;;;;7.75;2.70;;;3.60;99.90;;;;;;4980898;28;20567;-78
2022/04/08 05:13:35;;;;;;;9.73;2.55;;;3.60;99.90;;;;;;4968275;28;20049;-78
2022/04/08 05:16:01;;;;;;;6.20;2.40;;;3.70;99.90;;;;;;4961118;28;20056;-78
2022/04/08 05:18:37;;;;;;;5.78;1.92;;;3.70;99.90;;;;;;4960672;28;20046;-78
2022/04/08 05:21:03;;;;;;;11.35;2.40;;;3.70;99.90;;;;;;4960991;28;20085;-78
2022/04/08 05:23:33;;;;;;;11.52;2.20;;;3.80;99.90;;;;;;4973935;28;20069;-78
2022/04/08 05:25:59;;;;;;;8.00;1.67;;;3.80;99.90;;;;;;4980031;28;20042;-79
2022/04/08 05:28:33;;;;;;;5.45;1.60;;;3.80;99.90;;;;;;4976707;28;20042;-79
2022/04/08 05:31:08;;;;;;;6.13;1.73;;;3.70;99.90;;;;;;4961402;28;20065;-79
2022/04/08 05:34:08;;;;;;;9.88;1.58;;;3.60;99.90;;;;;;4972425;28;20030;-80
2022/04/08 05:37:21;;;;;;;2.78;1.50;;;3.40;99.90;;;;;;4963040;28;20077;-80
2022/04/08 05:40:26;;;;;;;4.70;1.50;;;3.20;99.90;;;;;;4879896;29;20044;-79
2022/04/08 05:43:11;;;;;;;3.50;1.20;;;3.00;99.90;;;;;;4912370;29;20039;-79
2022/04/08 05:45:40;;;;;;;3.33;1.30;;;2.80;99.90;;;;;;4901735;29;20190;-78
2022/04/08 05:48:24;;;;;;;6.30;1.70;;;2.60;99.90;;;;;;4900235;29;20135;-79
2022/04/08 05:51:12;;;;;;;4.15;2.10;;;2.50;99.90;;;;;;4933654;28;20043;-79
2022/04/08 05:58:59;;;;;;;5.38;1.83;;;2.20;99.90;;;;;;5988728;22;20090;-75
2022/04/08 06:01:24;;;;;;;8.05;1.70;;;2.10;99.90;;;;;;5015305;28;20045;-75
2022/04/08 06:03:50;;;;;;;5.85;1.80;;;2.10;99.90;;;;;;5016482;28;20041;-73
2022/04/08 06:06:15;;;;;;;5.05;1.60;;;2.00;99.90;;;;;;5016941;28;20529;-74
2022/04/08 06:08:41;;;;;;;2.88;1.70;;;1.90;99.90;;;;;;5016070;28;20124;-75
2022/04/08 06:11:06;;;;;;;3.22;1.90;;;1.80;99.90;;;;;;5003130;28;20042;-74
2022/04/08 06:13:32;;;;;;;5.07;1.80;;;1.70;99.90;;;;;;4979104;28;20526;-74
2022/04/08 06:15:57;;;;;;;4.00;1.60;;;1.70;99.90;;;;;;4990440;28;20048;-77
2022/04/08 06:18:23;;;;;;;11.70;2.15;;;1.70;99.90;;;;;;4980535;23;20045;-74
2022/04/08 06:20:48;;;;;;;3.35;1.70;;;1.70;99.90;;;;;;4941013;28;20043;-74
2022/04/08 06:23:14;;;;;;;4.57;2.20;;;1.70;99.90;;;;;;4958168;28;20449;-74
2022/04/08 06:25:40;;;;;;;4.28;2.40;;;1.80;99.90;;;;;;4961657;28;20043;-74
2022/04/08 06:28:07;;;;;;;5.82;2.30;;;1.80;99.90;;;;;;4975173;28;20045;-74
2022/04/08 06:30:35;;;;;;;7.88;2.30;;;1.90;99.90;;;;;;4956550;28;20038;-74
2022/04/08 06:33:01;;;;;;;4.78;2.35;;;1.90;99.90;;;;;;4959557;28;20045;-73
2022/04/08 06:35:27;;;;;;;6.15;2.20;;;2.00;99.90;;;;;;4963856;28;20042;-73
2022/04/08 06:38:19;;;;;;;5.85;2.63;;;2.00;99.90;;;;;;4975960;28;20050;-73
2022/04/08 06:40:45;;;;;;;7.50;2.17;;;2.10;99.90;;;;;;4943574;28;20054;-75
2022/04/08 06:43:12;;;;;;;3.03;2.35;;;2.10;99.90;;;;;;4967158;28;20054;-74
2022/04/08 06:45:37;;;;;;;4.55;2.72;;;2.20;99.90;;;;;;4975167;28;20125;-74
2022/04/08 06:48:03;;;;;;;4.53;2.33;;;2.20;99.90;;;;;;4975146;28;20124;-74
2022/04/08 06:50:29;;;;;;;3.65;2.03;;;2.30;99.90;;;;;;4972787;28;20057;-74
2022/04/08 06:52:59;;;;;;;5.25;2.03;;;2.40;99.90;;;;;;4970829;28;20034;-74
2022/04/08 06:55:25;;;;;;;2.78;2.00;;;2.40;99.90;;;;;;4975203;28;20077;-74
2022/04/08 06:57:51;;;;;;;4.32;2.20;;;2.50;99.90;;;;;;4973017;28;20074;-76
2022/04/08 07:00:16;;;;;;;3.72;2.10;;;2.60;99.90;;;;;;4957246;28;20080;-80
2022/04/08 07:02:42;;;;;;;4.25;2.45;;;2.70;99.90;;;;;;4959694;28;20480;-76
2022/04/08 07:05:08;;;;;;;3.33;2.10;;;2.90;99.90;;;;;;4974116;28;20044;-75
2022/04/08 07:07:38;;;;;;;4.50;2.60;;;3.10;99.90;;;;;;4974417;28;20118;-75
2022/04/08 07:10:05;;;;;;;2.78;2.40;;;3.30;99.90;;;;;;4974275;28;20030;-75
2022/04/08 07:12:31;;;;;;;7.82;3.00;;;3.40;99.90;;;;;;4974859;28;20133;-76
2022/04/08 07:14:56;;;;;;;7.75;2.83;;;3.40;99.90;;;;;;4974528;28;20117;-76
2022/04/08 07:17:40;;;;;;;3.85;2.65;;;3.50;99.90;;;;;;4974280;28;20456;-76
2022/04/08 07:20:06;;;;;;;3.80;2.60;;;3.50;99.90;;;;;;4973969;28;20034;-75
2022/04/08 07:22:32;;;;;;;2.85;2.53;;;3.50;99.90;;;;;;4975075;28;20069;-75
2022/04/08 07:24:58;;;;;;;6.03;2.60;;;3.50;99.90;;;;;;4975036;28;20484;-75
2022/04/08 07:27:23;;;;;;;4.40;2.70;;;3.60;99.90;;;;;;4974940;28;20035;-75
2022/04/08 07:29:50;;;;;;;5.28;2.67;;;3.60;99.90;;;;;;4974192;28;20124;-75
2022/04/08 07:32:20;;;;;;;5.07;3.00;;;3.60;99.90;;;;;;4975105;28;20117;-75
2022/04/08 07:34:50;;;;;;;4.28;2.50;;;3.70;99.90;;;;;;4959043;28;20078;-75
2022/04/08 07:37:30;;;;;;;5.75;3.30;;;3.90;99.90;;;;;;4974962;28;20436;-75
2022/04/08 07:39:57;;;;;;;4.28;3.03;;;4.00;99.90;;;;;;4974520;28;20065;-76
2022/04/08 07:42:23;;;;;;;6.82;3.67;;;4.20;99.90;;;;;;4971168;28;20050;-76
2022/04/08 07:44:49;;;;;;;6.10;3.58;;;4.40;99.90;;;;;;4957965;28;20089;-77
2022/04/08 07:47:15;;;;;;;4.07;2.80;;;4.60;99.90;;;;;;4974569;28;20046;-75
2022/04/08 07:49:42;;;;;;;5.63;3.20;;;4.80;99.90;;;;;;4971911;28;20400;-72
2022/04/08 07:52:07;;;;;;;4.35;3.00;;;4.90;99.90;;;;;;4966180;28;20489;-74
2022/04/08 07:54:33;;;;;;;3.88;2.80;;;4.90;99.90;;;;;;4975511;28;20133;-72
2022/04/08 07:56:59;;;;;;;5.38;3.30;;;5.00;99.90;;;;;;4963673;28;20035;-75
2022/04/08 07:59:25;;;;;;;4.72;2.90;;;5.10;99.90;;;;;;4980715;28;20133;-72
2022/04/08 08:01:50;;;;;;;6.70;3.08;;;5.20;99.90;;;;;;4978728;28;20143;-73
2022/04/08 08:04:16;;;;;;;7.50;3.40;;;5.40;99.90;;;;;;4979414;28;20854;-73
2022/04/08 08:06:42;;;;;;;8.23;3.38;;;5.50;99.90;;;;;;4980448;28;20046;-76
2022/04/08 08:09:07;;;;;;;10.73;3.47;;;5.50;99.90;;;;;;4980137;28;20480;-74
2022/04/08 08:11:33;;;;;;;4.90;2.78;;;5.60;99.90;;;;;;4977794;28;20105;-75
2022/04/08 08:13:58;;;;;;;4.18;3.00;;;5.50;99.90;;;;;;4980711;28;20512;-74
2022/04/08 08:16:24;;;;;;;6.22;3.10;;;5.40;99.90;;;;;;4979860;28;20049;-75
2022/04/08 08:18:50;;;;;;;8.32;3.30;;;5.20;99.90;;;;;;4980698;28;20554;-74
2022/04/08 08:21:15;;;;;;;7.47;3.15;;;5.00;99.90;;;;;;4981019;28;20129;-75
2022/04/08 08:23:41;;;;;;;6.78;2.70;;;4.90;99.90;;;;;;4980431;28;20415;-75
2022/04/08 08:26:07;;;;;;;4.10;1.95;;;4.70;99.90;;;;;;4980787;28;20077;-76
2022/04/08 08:28:32;;;;;;;3.47;1.75;;;4.50;99.90;;;;;;4980953;28;20396;-75
2022/04/08 08:30:58;;;;;;;5.72;1.75;;;4.30;99.90;;;;;;4980624;28;20485;-75
2022/04/08 08:33:23;;;;;;;5.07;1.70;;;4.10;99.90;;;;;;4964749;28;20484;-75
2022/04/08 08:35:49;;;;;;;5.35;3.83;;;3.90;99.90;;;;;;4981188;28;20136;-75
2022/04/08 08:38:15;;;;;;;5.55;3.03;;;4.00;99.90;;;;;;4964386;28;20496;-75
2022/04/08 08:40:44;;;;;;;4.55;2.67;;;4.20;99.90;;;;;;4980134;28;20046;-75
2022/04/08 08:43:17;;;;;;;5.30;2.97;;;4.60;99.90;;;;;;4979655;28;20031;-75
2022/04/08 08:45:47;;;;;;;8.23;3.25;;;5.00;99.90;;;;;;4980756;28;20441;-75
2022/04/08 08:48:15;;;;;;;4.40;3.00;;;5.20;99.90;;;;;;4964293;28;20030;-75
2022/04/08 08:50:46;;;;;;;5.82;3.35;;;5.30;99.90;;;;;;4964521;28;20153;-75
2022/04/08 08:53:16;;;;;;;6.28;3.75;;;5.50;99.90;;;;;;4964618;28;20073;-75
2022/04/08 08:55:41;;;;;;;10.25;4.00;;;5.80;99.90;;;;;;4980098;28;20089;-75
2022/04/08 08:58:08;;;;;;;8.00;4.32;;;6.00;99.90;;;;;;4980246;28;20455;-75
2022/04/08 09:00:35;;;;;;;5.72;4.13;;;6.20;99.90;;;;;;4980524;28;20547;-75
2022/04/08 09:03:03;;;;;;;9.63;4.15;;;6.40;99.90;;;;;;4961121;28;20108;-75
2022/04/08 09:05:29;;;;;;;11.32;5.60;;;6.50;99.90;;;;;;4977394;28;20519;-75
2022/04/08 09:08:00;;;;;;;11.50;5.30;;;7.20;99.90;;;;;;4977767;28;20034;-75
2022/04/08 09:10:28;;;;;;;7.13;5.03;;;8.10;99.90;;;;;;4977095;28;20057;-75
2022/04/08 09:12:55;;;;;;;10.73;4.30;;;8.30;99.90;;;;;;4977299;28;20501;-75
2022/04/08 09:15:20;;;;;;;10.35;4.57;;;8.40;99.90;;;;;;4957123;28;20073;-75
2022/04/08 09:17:46;;;;;;;8.38;3.65;;;8.50;99.90;;;;;;4954080;28;20404;-75
2022/04/08 09:20:12;;;;;;;8.25;3.38;;;8.70;99.90;;;;;;4977066;28;20047;-75
2022/04/08 09:22:37;;;;;;;10.57;3.47;;;8.70;99.90;;;;;;4961210;28;20495;-75
2022/04/08 09:25:11;;;;;;;8.57;2.60;;;9.00;99.90;;;;;;4976879;28;20400;-75
2022/04/08 09:27:41;;;;;;;9.00;3.08;;;9.40;99.90;;;;;;4976974;28;20495;-75
2022/04/08 09:30:08;;;;;;;11.57;2.30;;;9.80;99.90;;;;;;4976875;28;20038;-75
2022/04/08 09:32:35;;;;;;;6.22;1.83;;;9.90;99.90;;;;;;4977160;28;20389;-75
2022/04/08 09:35:01;;;;;;;5.28;1.60;;;9.70;99.90;;;;;;4977220;28;20042;-75
2022/04/08 09:37:28;;;;;;;7.80;2.10;;;9.30;99.90;;;;;;4961022;28;20034;-75
2022/04/08 09:39:54;;;;;;;5.85;1.70;;;9.00;99.90;;;;;;4976331;28;20524;-75
2022/04/08 09:42:20;;;;;;;6.43;1.40;;;9.00;99.90;;;;;;4976507;28;20440;-75
2022/04/08 09:44:47;;;;;;;4.72;1.55;;;9.20;99.90;;;;;;4959851;28;20141;-75
2022/04/08 09:47:13;;;;;;;7.28;1.83;;;9.60;99.90;;;;;;4976180;28;20042;-77
2022/04/08 09:49:39;;;;;;;7.28;1.73;;;10.00;99.90;;;;;;4972556;28;20485;-74
2022/04/08 09:52:07;;;;;;;6.40;1.58;;;10.40;99.90;;;;;;4957676;28;20084;-74
2022/04/08 09:54:33;;;;;;;6.75;1.77;;;10.60;99.90;;;;;;4946301;28;20050;-75
2022/04/08 09:57:00;;;;;;;7.75;1.90;;;10.80;99.90;;;;;;4976580;28;20058;-74
2022/04/08 09:59:29;;;;;;;9.23;1.92;;;10.80;99.90;;;;;;4976379;28;20053;-74
2022/04/08 10:01:57;;;;;;;7.68;2.03;;;11.20;99.90;;;;;;4956888;28;20493;-72
2022/04/08 10:04:23;;;;;;;6.68;1.75;;;11.40;99.90;;;;;;4955667;28;20173;-73
2022/04/08 10:06:49;;;;;;;5.82;1.60;;;11.30;99.90;;;;;;4973879;28;20397;-72
2022/04/08 10:09:17;;;;;;;7.13;1.63;;;11.00;99.90;;;;;;4959916;28;20042;-74
2022/04/08 10:12:07;;;;;;;4.88;1.60;;;10.50;99.90;;;;;;4960293;28;20465;-74
2022/04/08 10:15:07;;;;;;;7.53;1.98;;;10.30;99.90;;;;;;4972358;28;20048;-71
2022/04/08 10:17:32;;;;;;;6.15;1.58;;;10.20;99.90;;;;;;4973317;28;20042;-72
2022/04/08 10:20:20;;;;;;;7.15;2.10;;;10.10;99.90;;;;;;4972074;28;20393;-73
2022/04/08 10:22:46;;;;;;;5.35;1.42;;;10.10;99.90;;;;;;4966730;28;20056;-74
2022/04/08 10:25:19;;;;;;;6.78;2.10;;;10.20;99.90;;;;;;4956824;28;20042;-73
2022/04/08 10:27:45;;;;;;;6.75;1.52;;;10.20;99.90;;;;;;4973055;28;20121;-73
2022/04/08 10:30:20;;;;;;;8.93;2.20;;;10.20;99.90;;;;;;4974193;28;20034;-72
2022/04/08 10:32:47;;;;;;;6.55;2.13;;;10.20;99.90;;;;;;4975736;28;20048;-73
2022/04/08 10:35:19;;;;;;;7.95;2.17;;;10.30;99.90;;;;;;4976117;28;20504;-72
2022/04/08 10:37:56;;;;;;;6.75;2.03;;;10.40;99.90;;;;;;4975676;28;20125;-73
2022/04/08 10:40:40;;;;;;;6.93;2.05;;;10.40;99.90;;;;;;4964005;28;20042;-73
2022/04/08 10:43:08;;;;;;;8.68;2.38;;;10.40;99.90;;;;;;4967433;28;20097;-72
2022/04/08 10:45:35;;;;;;;6.40;2.00;;;10.40;99.90;;;;;;4962504;28;20497;-72
2022/04/08 10:48:21;;;;;;;7.93;1.65;;;10.30;99.90;;;;;;4974844;28;20370;-73
2022/04/08 10:50:47;;;;;;;6.47;1.90;;;10.20;99.90;;;;;;4991112;28;20053;-72
2022/04/08 10:53:18;;;;;;;5.10;1.65;;;10.00;99.90;;;;;;4975235;28;20046;-72
2022/04/08 10:56:04;;;;;;;9.20;2.40;;;9.90;99.90;;;;;;4975457;28;20042;-72
2022/04/08 10:58:31;;;;;;;7.10;1.88;;;10.30;99.90;;;;;;4974286;28;20077;-72
2022/04/08 11:00:56;;;;;;;5.53;2.33;;;10.60;99.90;;;;;;4971124;28;20038;-72
2022/04/08 11:03:29;;;;;;;6.95;2.45;;;11.10;99.90;;;;;;4965369;28;20045;-72
2022/04/08 11:05:55;;;;;;;4.82;1.90;;;11.50;99.90;;;;;;4969730;28;20046;-73
2022/04/08 11:08:27;;;;;;;5.82;2.00;;;11.90;99.90;;;;;;4974581;28;20038;-71
2022/04/08 11:59:19;;;;;;;6.82;1.98;;;8.90;99.90;;;;;;5108665;27;20853;-71
2022/04/08 12:01:44;;;;;;;6.75;2.10;;;9.10;99.90;;;;;;5089528;28;20102;-72
2022/04/08 12:04:16;;;;;;;8.18;2.15;;;9.40;99.90;;;;;;5078543;28;20036;-73
2022/04/08 12:06:46;;;;;;;7.75;2.22;;;9.70;99.90;;;;;;5074925;28;20038;-72
2022/04/08 12:09:13;;;;;;;5.38;2.22;;;9.90;99.90;;;;;;5075006;28;20032;-72
2022/04/08 12:11:42;;;;;;;9.93;2.33;;;9.90;99.90;;;;;;5080514;28;20082;-72
2022/04/08 12:14:09;;;;;;;8.38;2.80;;;9.90;99.90;;;;;;5079345;28;20040;-72
2022/04/08 12:16:36;;;;;;;7.38;2.45;;;10.30;99.90;;;;;;5083373;28;20043;-72
2022/04/08 12:19:02;;;;;;;8.32;2.28;;;11.00;99.90;;;;;;5087061;28;20040;-73
2022/04/08 12:21:30;;;;;;;6.50;2.30;;;11.00;99.90;;;;;;5075476;28;20063;-73
2022/04/08 12:24:00;;;;;;;6.22;2.00;;;10.80;99.90;;;;;;5077551;28;20040;-73
2022/04/08 12:26:38;;;;;;;6.15;2.33;;;10.50;99.90;;;;;;5081475;28;20063;-73
2022/04/08 12:29:09;;;;;;;6.85;1.77;;;10.30;99.90;;;;;;5072101;28;20044;-72
2022/04/08 12:31:55;;;;;;;9.95;3.00;;;10.20;99.90;;;;;;5084811;28;20047;-72
2022/04/08 12:34:21;;;;;;;7.53;2.08;;;10.70;99.90;;;;;;5085104;28;20038;-73
2022/04/08 12:36:48;;;;;;;5.47;1.90;;;11.60;99.90;;;;;;5089009;28;20119;-73
2022/04/08 12:39:15;;;;;;;2.92;1.83;;;12.50;99.90;;;;;;5074526;28;20598;-73
2022/04/08 12:41:41;;;;;;;3.78;1.30;;;12.90;99.90;;;;;;5075642;28;20036;-73
2022/04/08 12:44:08;;;;;;;3.95;1.00;;;13.20;99.90;;;;;;5079601;28;20044;-73
2022/04/08 12:46:34;;;;;;;4.90;1.00;;;13.40;99.90;;;;;;5086492;28;20035;-72
2022/04/08 12:48:59;;;;;;;3.95;0.90;;;13.30;99.90;;;;;;5053436;28;20493;-73
2022/04/08 12:51:26;;;;;;;4.72;1.15;;;13.20;99.90;;;;;;5073626;28;20491;-73
2022/04/08 12:53:52;;;;;;;3.70;1.02;;;13.30;99.90;;;;;;5080672;28;20173;-73
2022/04/08 12:56:17;;;;;;;3.83;0.90;;;13.40;99.90;;;;;;5079640;28;20131;-73
2022/04/08 12:58:43;;;;;;;4.22;1.00;;;13.50;99.90;;;;;;5080595;28;20182;-73
2022/04/08 13:01:08;;;;;;;4.43;1.05;;;13.60;99.90;;;;;;5083740;28;20067;-73
2022/04/08 13:03:34;;;;;;;4.10;1.13;;;13.50;99.90;;;;;;5084992;28;20546;-73
2022/04/08 13:06:00;;;;;;;10.65;1.58;;;13.40;99.90;;;;;;5073946;28;20032;-73
2022/04/08 13:08:25;;;;;;;4.47;1.67;;;13.40;99.90;;;;;;5078930;28;20027;-73
2022/04/08 13:10:51;;;;;;;5.53;1.35;;;13.40;99.90;;;;;;5066384;28;20078;-73
2022/04/08 13:13:16;;;;;;;3.28;1.20;;;13.20;99.90;;;;;;5059168;28;20044;-73
2022/04/08 13:15:42;;;;;;;4.80;1.38;;;13.10;99.90;;;;;;5083253;28;20046;-73
2022/04/08 13:18:08;;;;;;;4.68;1.15;;;13.00;99.90;;;;;;5056641;28;20048;-73
2022/04/08 13:20:34;;;;;;;4.20;1.60;;;12.80;99.90;;;;;;5064930;28;20051;-73
2022/04/08 13:23:00;;;;;;;4.88;1.10;;;12.70;99.90;;;;;;5061958;28;21710;-73
2022/04/08 13:25:26;;;;;;;6.03;1.27;;;12.50;99.90;;;;;;5071001;28;20036;-73
2022/04/08 13:27:53;;;;;;;3.30;1.20;;;12.30;99.90;;;;;;5057820;28;20635;-73
2022/04/08 13:30:20;;;;;;;4.35;1.10;;;11.90;99.90;;;;;;5061123;28;20590;-73
2022/04/08 13:32:47;;;;;;;5.13;1.55;;;11.40;99.90;;;;;;5064214;28;20123;-72
2022/04/08 13:35:13;;;;;;;5.20;1.10;;;10.90;99.90;;;;;;5058423;28;20083;-73
2022/04/08 13:37:38;;;;;;;3.85;1.30;;;10.50;99.90;;;;;;5064691;28;20071;-74
2022/04/08 13:40:04;;;;;;;4.35;1.23;;;10.30;99.90;;;;;;5063970;28;20522;-73
2022/04/08 13:42:30;;;;;;;3.42;1.23;;;10.10;99.90;;;;;;5058722;28;20103;-73
2022/04/08 13:44:56;;;;;;;6.85;1.20;;;10.00;99.90;;;;;;5035849;28;20502;-74
2022/04/08 13:47:21;;;;;;;5.18;1.35;;;10.00;99.90;;;;;;5035767;28;20474;-73
2022/04/08 13:49:47;;;;;;;5.50;1.27;;;9.90;99.90;;;;;;5026192;28;20036;-75
2022/04/08 13:52:13;;;;;;;5.85;1.35;;;9.80;99.90;;;;;;5048503;28;20721;-75